Guayaquil, Ecuador

11:24 PM ECT en Octubre 25, 2014 (GMT -0500)
Jose Joaquin de Olmedo | Change Station
CLOSE
Current Station
Aeropuerto
Location: Guayaquil,
Altura: 30 ft
Estaciones meteorológicas cercanas

Alt 30 ft 2.16 °S, 79.88 °W | Updated 24 minutes ago

Scattered Clouds
Nubes dispersas
73 ° F
Sensación térmica 73 ° F
N
13
Viento Variable Viento desde SO

Hoy
Alta -- | Baja -- ° F
--% Posibilidad de precipitaciones
Ayer
Alta -- | Baja -- ° F
Precip. -- pul
5:58 AM 6:08 PM
Creciente, 6% visible
Presión 29.92 pul
Visibilidad 6.2 Millas
Nubes Baja 3000 ft
Nubes dispersas 10000 ft
Punto de rocío 66 ° F
Humedad 78%
Precipitaciones 0.00 pul
Espesor de la nieve No disponible.
UV 0 de una escala de 12
Polen No disponible.
Calidad del aire No disponible.
Flu Activity No disponible.
METAR SEGU 260400Z 22011KT 9999 FEW030 SCT100 23/19 Q1013 NOSIG RMK A2993

More Conditions Fewer Conditions

Presión 29.92 pul
Visibilidad 6.2 Millas
Nubes Baja 3000 ft
Nubes dispersas 10000 ft
Punto de rocío 66 ° F
Humedad 78%
Precipitaciones 0.00 pul
Espesor de la nieve No disponible.
UV 0 de una escala de 12
Polen No disponible.
Calidad del aire No disponible.
Flu Activity No disponible.
METAR SEGU 260400Z 22011KT 9999 FEW030 SCT100 23/19 Q1013 NOSIG RMK A2993

More Conditions Fewer Conditions

10-Day Weather Forecast

Almanac

Astronomía

Oct. 25, 2014 Salida Puesta
Hora real 5:58 AM ECT 6:08 PM ECT
Crepúsculo civil 5:37 AM ECT 6:29 PM ECT
Crepúsculo náutico 5:12 AM ECT 6:54 PM ECT
Crepúsculo astronómico 4:47 AM ECT 7:19 PM ECT
Luna 7:19 AM ECT (10/25) 7:49 PM ECT (10/25)
Horas de luz 12h 52m
Horas de luz
12h 10m
Tomorrow will be 0m 7s longer.
Creciente, 6% of the Moon is Illuminated
Oct 26
Creciente
Oct 30
Cuarto creciente
Nov 6
Luna llena
Nov 14
Cuarto menguante
Nov 22
Nueva

Extremos de hoy

Máximos del país Bajas del país

Community

WunderPhotos

Upload Photos

1,765,110 ¡fotos cargadas!

Nearby

Calidad del aire

Not available.

Grosos de nieve

Not available.

Actividad de terremotos

Ciudad Distance Mag. Tiempo y dato
No hay informes recientes de la actividad sísmica.
Magnitud mínima muestra es 2,5.

Temperaturas de aguas costeras

Lugar Temperatura
Sin partes meteorológicos de las estaciones

Estaciones meteorológicas cercanas